sensor_id;sensor_type;location;lat;lon;timestamp;temperature;humidity
18240;DHT22;9244;50.828;4.718;2023-10-09T00:01:06;15.20;99.90
18240;DHT22;9244;50.828;4.718;2023-10-09T00:03:46;15.20;99.90
18240;DHT22;9244;50.828;4.718;2023-10-09T00:06:18;15.20;99.90
18240;DHT22;9244;50.828;4.718;2023-10-09T00:08:56;15.20;99.90
18240;DHT22;9244;50.828;4.718;2023-10-09T00:11:23;15.30;99.90
18240;DHT22;9244;50.828;4.718;2023-10-09T00:13:55;15.30;99.90
18240;DHT22;9244;50.828;4.718;2023-10-09T00:16:25;15.40;99.90
18240;DHT22;9244;50.828;4.718;2023-10-09T00:19:05;15.50;99.90
18240;DHT22;9244;50.828;4.718;2023-10-09T00:21:48;15.50;99.90
18240;DHT22;9244;50.828;4.718;2023-10-09T00:24:15;15.70;99.90
18240;DHT22;9244;50.828;4.718;2023-10-09T00:26:53;15.70;99.90
18240;DHT22;9244;50.828;4.718;2023-10-09T00:29:36;15.70;99.90
18240;DHT22;9244;50.828;4.718;2023-10-09T00:32:08;15.80;99.90
18240;DHT22;9244;50.828;4.718;2023-10-09T00:34:48;15.80;99.90
18240;DHT22;9244;50.828;4.718;2023-10-09T00:37:16;15.80;99.90
18240;DHT22;9244;50.828;4.718;2023-10-09T00:39:43;15.80;99.90
18240;DHT22;9244;50.828;4.718;2023-10-09T00:42:10;15.90;99.90
18240;DHT22;9244;50.828;4.718;2023-10-09T00:44:38;15.90;99.90
18240;DHT22;9244;50.828;4.718;2023-10-09T00:47:14;15.90;99.90
18240;DHT22;9244;50.828;4.718;2023-10-09T00:50:07;15.90;99.90
18240;DHT22;9244;50.828;4.718;2023-10-09T00:52:37;15.80;99.90
18240;DHT22;9244;50.828;4.718;2023-10-09T00:55:17;15.80;99.90
18240;DHT22;9244;50.828;4.718;2023-10-09T00:57:49;15.80;99.90
18240;DHT22;9244;50.828;4.718;2023-10-09T01:00:17;15.70;99.90
18240;DHT22;9244;50.828;4.718;2023-10-09T01:03:04;15.80;99.90
18240;DHT22;9244;50.828;4.718;2023-10-09T01:05:56;15.80;99.90
18240;DHT22;9244;50.828;4.718;2023-10-09T01:08:39;15.70;99.90
18240;DHT22;9244;50.828;4.718;2023-10-09T01:11:13;15.70;99.90
18240;DHT22;9244;50.828;4.718;2023-10-09T01:13:49;15.70;99.90
18240;DHT22;9244;50.828;4.718;2023-10-09T01:16:22;15.60;99.90
18240;DHT22;9244;50.828;4.718;2023-10-09T01:18:50;15.50;99.90
18240;DHT22;9244;50.828;4.718;2023-10-09T01:21:17;15.50;99.90
18240;DHT22;9244;50.828;4.718;2023-10-09T01:23:47;15.50;99.90
18240;DHT22;9244;50.828;4.718;2023-10-09T01:26:31;15.50;99.90
18240;DHT22;9244;50.828;4.718;2023-10-09T01:29:00;15.50;99.90
18240;DHT22;9244;50.828;4.718;2023-10-09T01:31:26;15.40;99.90
18240;DHT22;9244;50.828;4.718;2023-10-09T01:33:53;15.40;99.90
18240;DHT22;9244;50.828;4.718;2023-10-09T01:36:25;15.40;99.90
18240;DHT22;9244;50.828;4.718;2023-10-09T01:38:59;15.50;99.90
18240;DHT22;9244;50.828;4.718;2023-10-09T01:41:26;15.40;99.90
18240;DHT22;9244;50.828;4.718;2023-10-09T01:43:52;15.40;99.90
18240;DHT22;9244;50.828;4.718;2023-10-09T01:46:26;15.40;99.90
18240;DHT22;9244;50.828;4.718;2023-10-09T01:48:51;15.40;99.90
18240;DHT22;9244;50.828;4.718;2023-10-09T01:51:19;15.40;99.90
18240;DHT22;9244;50.828;4.718;2023-10-09T01:53:45;15.50;99.90
18240;DHT22;9244;50.828;4.718;2023-10-09T01:56:19;15.50;99.90
18240;DHT22;9244;50.828;4.718;2023-10-09T01:58:45;15.50;99.90
18240;DHT22;9244;50.828;4.718;2023-10-09T02:01:13;15.50;99.90
18240;DHT22;9244;50.828;4.718;2023-10-09T02:03:39;15.50;99.90
18240;DHT22;9244;50.828;4.718;2023-10-09T02:06:07;15.60;99.90
18240;DHT22;9244;50.828;4.718;2023-10-09T02:08:51;15.70;99.90
18240;DHT22;9244;50.828;4.718;2023-10-09T02:11:17;15.60;99.90
18240;DHT22;9244;50.828;4.718;2023-10-09T02:14:01;15.70;99.90
18240;DHT22;9244;50.828;4.718;2023-10-09T02:16:27;15.70;99.90
18240;DHT22;9244;50.828;4.718;2023-10-09T02:19:07;15.60;99.90
18240;DHT22;9244;50.828;4.718;2023-10-09T02:21:34;15.60;99.90
18240;DHT22;9244;50.828;4.718;2023-10-09T02:24:05;15.60;99.90
18240;DHT22;9244;50.828;4.718;2023-10-09T02:26:34;15.60;99.90
18240;DHT22;9244;50.828;4.718;2023-10-09T02:29:26;15.70;99.90
18240;DHT22;9244;50.828;4.718;2023-10-09T02:31:52;15.60;99.90
18240;DHT22;9244;50.828;4.718;2023-10-09T02:34:18;15.60;99.90
18240;DHT22;9244;50.828;4.718;2023-10-09T02:36:47;15.60;99.90
18240;DHT22;9244;50.828;4.718;2023-10-09T02:39:24;15.60;99.90
18240;DHT22;9244;50.828;4.718;2023-10-09T02:41:52;15.60;99.90
18240;DHT22;9244;50.828;4.718;2023-10-09T02:44:21;15.50;99.90
18240;DHT22;9244;50.828;4.718;2023-10-09T02:46:51;15.50;99.90
18240;DHT22;9244;50.828;4.718;2023-10-09T02:49:22;15.50;99.90
18240;DHT22;9244;50.828;4.718;2023-10-09T02:51:48;15.50;99.90
18240;DHT22;9244;50.828;4.718;2023-10-09T02:54:18;15.50;99.90
18240;DHT22;9244;50.828;4.718;2023-10-09T02:56:52;15.40;99.90
18240;DHT22;9244;50.828;4.718;2023-10-09T02:59:34;15.40;99.90
18240;DHT22;9244;50.828;4.718;2023-10-09T03:02:02;15.40;99.90
18240;DHT22;9244;50.828;4.718;2023-10-09T03:04:28;15.40;99.90
18240;DHT22;9244;50.828;4.718;2023-10-09T03:06:55;15.30;99.90
18240;DHT22;9244;50.828;4.718;2023-10-09T03:09:23;15.30;99.90
18240;DHT22;9244;50.828;4.718;2023-10-09T03:12:03;15.40;99.90
18240;DHT22;9244;50.828;4.718;2023-10-09T03:14:34;15.40;99.90
18240;DHT22;9244;50.828;4.718;2023-10-09T03:17:07;15.30;99.90
18240;DHT22;9244;50.828;4.718;2023-10-09T03:19:37;15.30;99.90
18240;DHT22;9244;50.828;4.718;2023-10-09T03:22:06;15.30;99.90
18240;DHT22;9244;50.828;4.718;2023-10-09T03:24:36;15.30;99.90
18240;DHT22;9244;50.828;4.718;2023-10-09T03:27:05;15.30;99.90
18240;DHT22;9244;50.828;4.718;2023-10-09T03:29:31;15.40;99.90
18240;DHT22;9244;50.828;4.718;2023-10-09T03:31:56;15.40;99.90
18240;DHT22;9244;50.828;4.718;2023-10-09T03:34:23;15.40;99.90
18240;DHT22;9244;50.828;4.718;2023-10-09T03:36:49;15.40;99.90
18240;DHT22;9244;50.828;4.718;2023-10-09T03:39:25;15.30;99.90
18240;DHT22;9244;50.828;4.718;2023-10-09T03:42:12;15.30;99.90
18240;DHT22;9244;50.828;4.718;2023-10-09T03:44:45;15.20;99.90
18240;DHT22;9244;50.828;4.718;2023-10-09T03:47:18;15.10;99.90
18240;DHT22;9244;50.828;4.718;2023-10-09T03:49:51;15.10;99.90
18240;DHT22;9244;50.828;4.718;2023-10-09T03:52:18;15.10;99.90
18240;DHT22;9244;50.828;4.718;2023-10-09T03:54:45;15.10;99.90
18240;DHT22;9244;50.828;4.718;2023-10-09T03:57:15;15.00;99.90
18240;DHT22;9244;50.828;4.718;2023-10-09T03:59:46;15.00;99.90
18240;DHT22;9244;50.828;4.718;2023-10-09T04:02:17;15.00;99.90
18240;DHT22;9244;50.828;4.718;2023-10-09T04:04:43;15.00;99.90
18240;DHT22;9244;50.828;4.718;2023-10-09T04:07:17;14.90;99.90
18240;DHT22;9244;50.828;4.718;2023-10-09T04:09:42;15.00;99.90
18240;DHT22;9244;50.828;4.718;2023-10-09T04:12:12;15.00;99.90
18240;DHT22;9244;50.828;4.718;2023-10-09T04:14:46;15.00;99.90
18240;DHT22;9244;50.828;4.718;2023-10-09T04:17:23;15.00;99.90
18240;DHT22;9244;50.828;4.718;2023-10-09T04:19:49;14.90;99.90
18240;DHT22;9244;50.828;4.718;2023-10-09T04:22:35;14.90;99.90
18240;DHT22;9244;50.828;4.718;2023-10-09T04:25:08;14.90;99.90
18240;DHT22;9244;50.828;4.718;2023-10-09T04:27:43;14.90;99.90
18240;DHT22;9244;50.828;4.718;2023-10-09T04:30:12;14.90;99.90
18240;DHT22;9244;50.828;4.718;2023-10-09T04:32:41;14.90;99.90
18240;DHT22;9244;50.828;4.718;2023-10-09T04:35:10;14.90;99.90
18240;DHT22;9244;50.828;4.718;2023-10-09T04:37:45;14.90;99.90
18240;DHT22;9244;50.828;4.718;2023-10-09T04:40:18;14.90;99.90
18240;DHT22;9244;50.828;4.718;2023-10-09T04:43:13;14.90;99.90
18240;DHT22;9244;50.828;4.718;2023-10-09T04:45:49;14.90;99.90
18240;DHT22;9244;50.828;4.718;2023-10-09T04:48:37;15.00;99.90
18240;DHT22;9244;50.828;4.718;2023-10-09T04:51:07;15.00;99.90
18240;DHT22;9244;50.828;4.718;2023-10-09T04:53:51;15.00;99.90
18240;DHT22;9244;50.828;4.718;2023-10-09T04:56:40;15.00;99.90
18240;DHT22;9244;50.828;4.718;2023-10-09T04:59:19;15.10;99.90
18240;DHT22;9244;50.828;4.718;2023-10-09T05:01:45;15.00;99.90
18240;DHT22;9244;50.828;4.718;2023-10-09T05:04:23;15.00;99.90
18240;DHT22;9244;50.828;4.718;2023-10-09T05:07:07;15.10;99.90
18240;DHT22;9244;50.828;4.718;2023-10-09T05:10:02;15.10;99.90
18240;DHT22;9244;50.828;4.718;2023-10-09T05:12:41;15.00;99.90
18240;DHT22;9244;50.828;4.718;2023-10-09T05:15:12;15.10;99.90
18240;DHT22;9244;50.828;4.718;2023-10-09T05:17:39;15.10;99.90
18240;DHT22;9244;50.828;4.718;2023-10-09T05:20:08;15.10;99.90
18240;DHT22;9244;50.828;4.718;2023-10-09T05:22:49;15.00;99.90
18240;DHT22;9244;50.828;4.718;2023-10-09T05:25:26;15.00;99.90
18240;DHT22;9244;50.828;4.718;2023-10-09T05:28:10;15.00;99.90
18240;DHT22;9244;50.828;4.718;2023-10-09T05:30:51;15.00;99.90
18240;DHT22;9244;50.828;4.718;2023-10-09T05:33:29;15.00;99.90
18240;DHT22;9244;50.828;4.718;2023-10-09T05:35:55;15.00;99.90
18240;DHT22;9244;50.828;4.718;2023-10-09T05:38:41;15.00;99.90
18240;DHT22;9244;50.828;4.718;2023-10-09T05:41:12;15.00;99.90
18240;DHT22;9244;50.828;4.718;2023-10-09T05:43:57;14.90;99.90
18240;DHT22;9244;50.828;4.718;2023-10-09T05:46:41;14.90;99.90
18240;DHT22;9244;50.828;4.718;2023-10-09T05:49:27;14.90;99.90
18240;DHT22;9244;50.828;4.718;2023-10-09T05:52:14;14.90;99.90
18240;DHT22;9244;50.828;4.718;2023-10-09T05:55:08;14.90;99.90
18240;DHT22;9244;50.828;4.718;2023-10-09T05:57:56;14.90;99.90
18240;DHT22;9244;50.828;4.718;2023-10-09T06:00:40;14.90;99.90
18240;DHT22;9244;50.828;4.718;2023-10-09T06:03:24;14.90;99.90
18240;DHT22;9244;50.828;4.718;2023-10-09T06:06:13;14.90;99.90
18240;DHT22;9244;50.828;4.718;2023-10-09T06:08:59;14.90;99.90
18240;DHT22;9244;50.828;4.718;2023-10-09T06:11:44;14.90;99.90
18240;DHT22;9244;50.828;4.718;2023-10-09T06:14:20;15.00;99.90
18240;DHT22;9244;50.828;4.718;2023-10-09T06:16:56;15.00;99.90
18240;DHT22;9244;50.828;4.718;2023-10-09T06:19:26;15.00;99.90
18240;DHT22;9244;50.828;4.718;2023-10-09T06:21:56;14.90;99.90
18240;DHT22;9244;50.828;4.718;2023-10-09T06:24:37;14.90;99.90
18240;DHT22;9244;50.828;4.718;2023-10-09T06:27:19;14.90;99.90
18240;DHT22;9244;50.828;4.718;2023-10-09T06:29:58;15.00;99.90
18240;DHT22;9244;50.828;4.718;2023-10-09T06:32:43;14.90;99.90
18240;DHT22;9244;50.828;4.718;2023-10-09T06:35:34;15.00;99.90
18240;DHT22;9244;50.828;4.718;2023-10-09T06:38:01;15.00;99.90
18240;DHT22;9244;50.828;4.718;2023-10-09T06:40:28;15.00;99.90
18240;DHT22;9244;50.828;4.718;2023-10-09T06:43:03;15.00;99.90
18240;DHT22;9244;50.828;4.718;2023-10-09T06:45:38;15.10;99.90
18240;DHT22;9244;50.828;4.718;2023-10-09T06:48:12;15.10;99.90
18240;DHT22;9244;50.828;4.718;2023-10-09T06:50:57;15.10;99.90
18240;DHT22;9244;50.828;4.718;2023-10-09T06:53:43;15.10;99.90
18240;DHT22;9244;50.828;4.718;2023-10-09T06:56:25;15.20;99.90
18240;DHT22;9244;50.828;4.718;2023-10-09T06:58:55;15.20;99.90
18240;DHT22;9244;50.828;4.718;2023-10-09T07:01:26;15.30;99.90
18240;DHT22;9244;50.828;4.718;2023-10-09T07:04:04;15.30;99.90
18240;DHT22;9244;50.828;4.718;2023-10-09T07:06:56;15.30;99.90
18240;DHT22;9244;50.828;4.718;2023-10-09T07:09:22;15.40;99.90
18240;DHT22;9244;50.828;4.718;2023-10-09T07:11:52;15.50;99.90
18240;DHT22;9244;50.828;4.718;2023-10-09T07:14:19;15.50;99.90
18240;DHT22;9244;50.828;4.718;2023-10-09T07:16:58;15.60;99.90
18240;DHT22;9244;50.828;4.718;2023-10-09T07:19:26;15.60;99.90
18240;DHT22;9244;50.828;4.718;2023-10-09T07:22:21;15.70;99.90
18240;DHT22;9244;50.828;4.718;2023-10-09T07:24:48;15.70;99.90
18240;DHT22;9244;50.828;4.718;2023-10-09T07:27:28;15.80;99.90
18240;DHT22;9244;50.828;4.718;2023-10-09T07:30:16;15.80;99.90
18240;DHT22;9244;50.828;4.718;2023-10-09T07:33:05;15.80;99.90
18240;DHT22;9244;50.828;4.718;2023-10-09T07:35:47;16.00;99.90
18240;DHT22;9244;50.828;4.718;2023-10-09T07:38:19;16.00;99.90
18240;DHT22;9244;50.828;4.718;2023-10-09T07:40:50;16.10;99.90
18240;DHT22;9244;50.828;4.718;2023-10-09T07:43:38;16.00;99.90
18240;DHT22;9244;50.828;4.718;2023-10-09T07:46:11;16.10;99.90
18240;DHT22;9244;50.828;4.718;2023-10-09T07:48:56;16.20;99.90
18240;DHT22;9244;50.828;4.718;2023-10-09T07:51:23;16.20;99.90
18240;DHT22;9244;50.828;4.718;2023-10-09T07:53:54;16.30;99.90
18240;DHT22;9244;50.828;4.718;2023-10-09T07:56:26;16.40;99.90
18240;DHT22;9244;50.828;4.718;2023-10-09T07:58:56;16.50;99.90
18240;DHT22;9244;50.828;4.718;2023-10-09T08:01:26;16.70;99.90
18240;DHT22;9244;50.828;4.718;2023-10-09T08:03:54;16.90;99.90
18240;DHT22;9244;50.828;4.718;2023-10-09T08:06:27;17.20;99.90
18240;DHT22;9244;50.828;4.718;2023-10-09T08:09:06;17.20;99.90
18240;DHT22;9244;50.828;4.718;2023-10-09T08:11:48;17.50;99.90
18240;DHT22;9244;50.828;4.718;2023-10-09T08:14:40;17.60;99.90
18240;DHT22;9244;50.828;4.718;2023-10-09T08:17:06;17.50;99.90
18240;DHT22;9244;50.828;4.718;2023-10-09T08:19:46;17.50;99.90
18240;DHT22;9244;50.828;4.718;2023-10-09T08:22:30;17.40;99.90
18240;DHT22;9244;50.828;4.718;2023-10-09T08:24:56;17.40;99.90
18240;DHT22;9244;50.828;4.718;2023-10-09T08:27:31;17.30;99.90
18240;DHT22;9244;50.828;4.718;2023-10-09T08:30:06;17.20;99.90
18240;DHT22;9244;50.828;4.718;2023-10-09T08:32:48;17.30;99.90
18240;DHT22;9244;50.828;4.718;2023-10-09T08:35:35;17.20;99.90
18240;DHT22;9244;50.828;4.718;2023-10-09T08:38:13;17.20;99.90
18240;DHT22;9244;50.828;4.718;2023-10-09T08:40:43;17.30;99.90
18240;DHT22;9244;50.828;4.718;2023-10-09T08:43:18;17.30;99.90
18240;DHT22;9244;50.828;4.718;2023-10-09T08:45:49;17.60;99.90
18240;DHT22;9244;50.828;4.718;2023-10-09T08:48:19;17.80;99.90
18240;DHT22;9244;50.828;4.718;2023-10-09T08:50:48;18.00;99.90
18240;DHT22;9244;50.828;4.718;2023-10-09T08:53:19;18.00;99.90
18240;DHT22;9244;50.828;4.718;2023-10-09T08:55:45;18.00;99.90
18240;DHT22;9244;50.828;4.718;2023-10-09T08:58:12;17.80;99.90
18240;DHT22;9244;50.828;4.718;2023-10-09T09:00:49;17.90;99.90
18240;DHT22;9244;50.828;4.718;2023-10-09T09:03:16;17.90;99.90
18240;DHT22;9244;50.828;4.718;2023-10-09T09:05:58;18.10;99.90
18240;DHT22;9244;50.828;4.718;2023-10-09T09:08:27;18.50;99.90
18240;DHT22;9244;50.828;4.718;2023-10-09T09:11:03;18.40;99.90
18240;DHT22;9244;50.828;4.718;2023-10-09T09:13:46;18.40;99.90
18240;DHT22;9244;50.828;4.718;2023-10-09T09:16:22;18.70;99.90
18240;DHT22;9244;50.828;4.718;2023-10-09T09:19:14;18.80;99.90
18240;DHT22;9244;50.828;4.718;2023-10-09T09:21:57;19.40;99.90
18240;DHT22;9244;50.828;4.718;2023-10-09T09:24:25;19.50;99.90
18240;DHT22;9244;50.828;4.718;2023-10-09T09:26:52;19.40;99.90
18240;DHT22;9244;50.828;4.718;2023-10-09T09:32:03;19.20;99.90
18240;DHT22;9244;50.828;4.718;2023-10-09T09:34:52;19.20;99.90
18240;DHT22;9244;50.828;4.718;2023-10-09T09:37:25;19.30;99.90
18240;DHT22;9244;50.828;4.718;2023-10-09T09:40:03;19.30;99.90
18240;DHT22;9244;50.828;4.718;2023-10-09T09:42:43;19.30;99.90
18240;DHT22;9244;50.828;4.718;2023-10-09T09:45:14;19.30;99.90
18240;DHT22;9244;50.828;4.718;2023-10-09T09:47:44;19.40;99.90
18240;DHT22;9244;50.828;4.718;2023-10-09T09:50:17;19.80;99.90
18240;DHT22;9244;50.828;4.718;2023-10-09T09:52:55;19.90;99.90
18240;DHT22;9244;50.828;4.718;2023-10-09T09:55:26;20.10;99.90
18240;DHT22;9244;50.828;4.718;2023-10-09T09:57:58;20.20;99.90
18240;DHT22;9244;50.828;4.718;2023-10-09T10:00:27;20.70;99.90
18240;DHT22;9244;50.828;4.718;2023-10-09T10:03:20;21.00;99.90
18240;DHT22;9244;50.828;4.718;2023-10-09T10:05:50;20.90;99.90
18240;DHT22;9244;50.828;4.718;2023-10-09T10:08:20;20.80;99.90
18240;DHT22;9244;50.828;4.718;2023-10-09T10:10:48;20.70;99.90
18240;DHT22;9244;50.828;4.718;2023-10-09T10:13:18;20.70;99.90
18240;DHT22;9244;50.828;4.718;2023-10-09T10:16:13;20.30;99.90
18240;DHT22;9244;50.828;4.718;2023-10-09T10:18:59;20.00;99.90
18240;DHT22;9244;50.828;4.718;2023-10-09T10:21:29;19.90;99.90
18240;DHT22;9244;50.828;4.718;2023-10-09T10:24:01;20.00;99.90
18240;DHT22;9244;50.828;4.718;2023-10-09T10:26:35;19.90;99.90
18240;DHT22;9244;50.828;4.718;2023-10-09T10:29:20;19.80;99.90
18240;DHT22;9244;50.828;4.718;2023-10-09T10:31:58;19.70;99.90
18240;DHT22;9244;50.828;4.718;2023-10-09T10:37:37;19.70;99.90
18240;DHT22;9244;50.828;4.718;2023-10-09T10:40:09;19.80;99.90
18240;DHT22;9244;50.828;4.718;2023-10-09T10:43:01;19.90;99.90
18240;DHT22;9244;50.828;4.718;2023-10-09T10:45:39;20.10;99.90
18240;DHT22;9244;50.828;4.718;2023-10-09T10:48:11;20.20;99.90
18240;DHT22;9244;50.828;4.718;2023-10-09T10:50:57;20.00;99.90
18240;DHT22;9244;50.828;4.718;2023-10-09T10:53:23;20.00;99.90
18240;DHT22;9244;50.828;4.718;2023-10-09T10:56:01;20.00;99.90
18240;DHT22;9244;50.828;4.718;2023-10-09T10:58:39;20.30;99.90
18240;DHT22;9244;50.828;4.718;2023-10-09T11:01:35;20.40;99.90
18240;DHT22;9244;50.828;4.718;2023-10-09T11:04:21;20.50;99.90
18240;DHT22;9244;50.828;4.718;2023-10-09T11:06:53;20.50;99.90
18240;DHT22;9244;50.828;4.718;2023-10-09T11:09:26;20.50;99.90
18240;DHT22;9244;50.828;4.718;2023-10-09T11:12:05;20.50;99.90
18240;DHT22;9244;50.828;4.718;2023-10-09T11:14:48;20.60;99.90
18240;DHT22;9244;50.828;4.718;2023-10-09T11:17:37;20.70;99.90
18240;DHT22;9244;50.828;4.718;2023-10-09T11:20:05;20.60;99.90
18240;DHT22;9244;50.828;4.718;2023-10-09T11:22:51;20.40;99.90
18240;DHT22;9244;50.828;4.718;2023-10-09T11:25:41;20.50;99.90
18240;DHT22;9244;50.828;4.718;2023-10-09T11:28:23;20.60;99.90
18240;DHT22;9244;50.828;4.718;2023-10-09T11:31:09;20.80;99.90
18240;DHT22;9244;50.828;4.718;2023-10-09T11:33:50;21.10;99.90
18240;DHT22;9244;50.828;4.718;2023-10-09T11:36:22;21.30;99.90
18240;DHT22;9244;50.828;4.718;2023-10-09T11:39:02;21.30;99.90
18240;DHT22;9244;50.828;4.718;2023-10-09T11:41:44;21.50;99.90
18240;DHT22;9244;50.828;4.718;2023-10-09T11:44:10;21.50;99.90
18240;DHT22;9244;50.828;4.718;2023-10-09T11:47:01;21.50;99.90
18240;DHT22;9244;50.828;4.718;2023-10-09T11:49:58;21.50;99.90
18240;DHT22;9244;50.828;4.718;2023-10-09T11:52:24;21.40;99.90
18240;DHT22;9244;50.828;4.718;2023-10-09T11:55:12;21.50;99.90
18240;DHT22;9244;50.828;4.718;2023-10-09T11:57:41;21.30;99.90
18240;DHT22;9244;50.828;4.718;2023-10-09T12:00:07;21.40;99.90
18240;DHT22;9244;50.828;4.718;2023-10-09T12:02:37;21.20;99.90
18240;DHT22;9244;50.828;4.718;2023-10-09T12:05:10;21.10;99.90
18240;DHT22;9244;50.828;4.718;2023-10-09T12:07:43;21.10;99.90
18240;DHT22;9244;50.828;4.718;2023-10-09T12:10:09;21.00;99.90
18240;DHT22;9244;50.828;4.718;2023-10-09T12:12:36;21.10;99.90
18240;DHT22;9244;50.828;4.718;2023-10-09T12:15:02;21.20;99.90
18240;DHT22;9244;50.828;4.718;2023-10-09T12:17:30;21.20;99.90
18240;DHT22;9244;50.828;4.718;2023-10-09T12:19:56;21.20;99.90
18240;DHT22;9244;50.828;4.718;2023-10-09T12:22:22;21.00;99.90
18240;DHT22;9244;50.828;4.718;2023-10-09T12:24:52;21.20;99.90
18240;DHT22;9244;50.828;4.718;2023-10-09T12:27:19;21.30;99.90
18240;DHT22;9244;50.828;4.718;2023-10-09T12:29:45;21.40;99.90
18240;DHT22;9244;50.828;4.718;2023-10-09T12:32:11;21.40;99.90
18240;DHT22;9244;50.828;4.718;2023-10-09T12:34:37;21.60;99.90
18240;DHT22;9244;50.828;4.718;2023-10-09T12:37:04;21.60;99.90
18240;DHT22;9244;50.828;4.718;2023-10-09T12:39:30;21.50;99.90
18240;DHT22;9244;50.828;4.718;2023-10-09T12:42:06;21.50;99.90
18240;DHT22;9244;50.828;4.718;2023-10-09T12:44:35;21.50;99.90
18240;DHT22;9244;50.828;4.718;2023-10-09T12:47:09;21.50;99.90
18240;DHT22;9244;50.828;4.718;2023-10-09T12:49:37;21.50;99.90
18240;DHT22;9244;50.828;4.718;2023-10-09T12:52:10;21.40;99.90
18240;DHT22;9244;50.828;4.718;2023-10-09T12:54:44;21.70;99.90
18240;DHT22;9244;50.828;4.718;2023-10-09T12:57:13;21.70;99.90
18240;DHT22;9244;50.828;4.718;2023-10-09T12:59:39;21.80;99.90
18240;DHT22;9244;50.828;4.718;2023-10-09T13:02:12;21.60;99.90
18240;DHT22;9244;50.828;4.718;2023-10-09T13:04:38;21.50;99.90
18240;DHT22;9244;50.828;4.718;2023-10-09T13:07:07;21.60;99.90
18240;DHT22;9244;50.828;4.718;2023-10-09T13:09:33;21.60;99.90
18240;DHT22;9244;50.828;4.718;2023-10-09T13:12:08;21.50;99.90
18240;DHT22;9244;50.828;4.718;2023-10-09T13:14:34;21.50;99.90
18240;DHT22;9244;50.828;4.718;2023-10-09T13:17:01;21.50;99.90
18240;DHT22;9244;50.828;4.718;2023-10-09T13:19:34;21.30;99.90
18240;DHT22;9244;50.828;4.718;2023-10-09T13:21:59;21.40;99.90
18240;DHT22;9244;50.828;4.718;2023-10-09T13:24:29;21.40;99.90
18240;DHT22;9244;50.828;4.718;2023-10-09T13:26:55;21.50;99.90
18240;DHT22;9244;50.828;4.718;2023-10-09T13:29:24;21.30;99.90
18240;DHT22;9244;50.828;4.718;2023-10-09T13:31:50;21.30;99.90
18240;DHT22;9244;50.828;4.718;2023-10-09T13:34:18;21.40;99.90
18240;DHT22;9244;50.828;4.718;2023-10-09T13:36:44;21.50;99.90
18240;DHT22;9244;50.828;4.718;2023-10-09T13:39:18;21.60;99.90
18240;DHT22;9244;50.828;4.718;2023-10-09T13:41:52;21.80;99.90
18240;DHT22;9244;50.828;4.718;2023-10-09T13:44:28;21.90;99.90
18240;DHT22;9244;50.828;4.718;2023-10-09T13:46:58;22.30;99.90
18240;DHT22;9244;50.828;4.718;2023-10-09T13:49:24;22.60;99.90
18240;DHT22;9244;50.828;4.718;2023-10-09T13:51:56;22.40;99.90
18240;DHT22;9244;50.828;4.718;2023-10-09T13:54:22;22.40;99.90
18240;DHT22;9244;50.828;4.718;2023-10-09T13:57:05;22.00;99.90
18240;DHT22;9244;50.828;4.718;2023-10-09T13:59:35;22.00;99.90
18240;DHT22;9244;50.828;4.718;2023-10-09T14:02:01;21.90;99.90
18240;DHT22;9244;50.828;4.718;2023-10-09T14:04:33;21.70;99.90
18240;DHT22;9244;50.828;4.718;2023-10-09T14:06:59;21.50;99.90
18240;DHT22;9244;50.828;4.718;2023-10-09T14:09:28;21.30;99.90
18240;DHT22;9244;50.828;4.718;2023-10-09T14:11:57;21.20;99.90
18240;DHT22;9244;50.828;4.718;2023-10-09T14:14:43;21.30;99.90
18240;DHT22;9244;50.828;4.718;2023-10-09T14:17:20;21.20;99.90
18240;DHT22;9244;50.828;4.718;2023-10-09T14:19:55;21.30;99.90
18240;DHT22;9244;50.828;4.718;2023-10-09T14:22:23;21.40;99.90
18240;DHT22;9244;50.828;4.718;2023-10-09T14:24:55;21.60;99.90
18240;DHT22;9244;50.828;4.718;2023-10-09T14:27:22;21.70;99.90
18240;DHT22;9244;50.828;4.718;2023-10-09T14:29:52;21.80;99.90
18240;DHT22;9244;50.828;4.718;2023-10-09T14:32:21;22.00;99.90
18240;DHT22;9244;50.828;4.718;2023-10-09T14:34:54;22.20;99.90
18240;DHT22;9244;50.828;4.718;2023-10-09T14:37:20;22.10;99.90
18240;DHT22;9244;50.828;4.718;2023-10-09T14:39:49;21.90;99.90
18240;DHT22;9244;50.828;4.718;2023-10-09T14:42:16;21.90;99.90
18240;DHT22;9244;50.828;4.718;2023-10-09T14:44:42;22.50;99.90
18240;DHT22;9244;50.828;4.718;2023-10-09T14:47:10;22.60;99.90
18240;DHT22;9244;50.828;4.718;2023-10-09T14:49:36;22.90;99.90
18240;DHT22;9244;50.828;4.718;2023-10-09T14:52:13;22.50;99.90
18240;DHT22;9244;50.828;4.718;2023-10-09T14:54:42;22.00;99.90
18240;DHT22;9244;50.828;4.718;2023-10-09T14:57:10;21.60;99.90
18240;DHT22;9244;50.828;4.718;2023-10-09T14:59:37;21.40;99.90
18240;DHT22;9244;50.828;4.718;2023-10-09T15:02:03;21.20;99.90
18240;DHT22;9244;50.828;4.718;2023-10-09T15:04:33;21.20;99.90
18240;DHT22;9244;50.828;4.718;2023-10-09T15:07:03;21.20;99.90
18240;DHT22;9244;50.828;4.718;2023-10-09T15:09:33;21.20;99.90
18240;DHT22;9244;50.828;4.718;2023-10-09T15:12:01;21.00;99.90
18240;DHT22;9244;50.828;4.718;2023-10-09T15:14:27;20.90;99.90
18240;DHT22;9244;50.828;4.718;2023-10-09T15:16:52;20.80;99.90
18240;DHT22;9244;50.828;4.718;2023-10-09T15:19:18;20.80;99.90
18240;DHT22;9244;50.828;4.718;2023-10-09T15:21:44;20.80;99.90
18240;DHT22;9244;50.828;4.718;2023-10-09T15:24:13;20.70;99.90
18240;DHT22;9244;50.828;4.718;2023-10-09T15:26:44;20.60;99.90
18240;DHT22;9244;50.828;4.718;2023-10-09T15:29:18;20.70;99.90
18240;DHT22;9244;50.828;4.718;2023-10-09T15:31:45;20.60;99.90
18240;DHT22;9244;50.828;4.718;2023-10-09T15:34:12;20.50;99.90
18240;DHT22;9244;50.828;4.718;2023-10-09T15:36:38;20.20;99.90
18240;DHT22;9244;50.828;4.718;2023-10-09T15:39:05;20.00;99.90
18240;DHT22;9244;50.828;4.718;2023-10-09T15:41:33;20.00;99.90
18240;DHT22;9244;50.828;4.718;2023-10-09T15:44:00;19.80;99.90
18240;DHT22;9244;50.828;4.718;2023-10-09T15:46:26;19.80;99.90
18240;DHT22;9244;50.828;4.718;2023-10-09T15:48:53;19.70;99.90
18240;DHT22;9244;50.828;4.718;2023-10-09T15:51:21;19.60;99.90
18240;DHT22;9244;50.828;4.718;2023-10-09T15:53:47;19.50;99.90
18240;DHT22;9244;50.828;4.718;2023-10-09T15:56:13;19.50;99.90
18240;DHT22;9244;50.828;4.718;2023-10-09T15:58:40;19.50;99.90
18240;DHT22;9244;50.828;4.718;2023-10-09T16:01:12;19.50;99.90
18240;DHT22;9244;50.828;4.718;2023-10-09T16:03:42;19.40;99.90
18240;DHT22;9244;50.828;4.718;2023-10-09T16:06:11;19.30;99.90
18240;DHT22;9244;50.828;4.718;2023-10-09T16:08:40;19.40;99.90
18240;DHT22;9244;50.828;4.718;2023-10-09T16:11:07;19.50;99.90
18240;DHT22;9244;50.828;4.718;2023-10-09T16:13:34;19.50;99.90
18240;DHT22;9244;50.828;4.718;2023-10-09T16:16:00;19.50;99.90
18240;DHT22;9244;50.828;4.718;2023-10-09T16:18:27;19.40;99.90
18240;DHT22;9244;50.828;4.718;2023-10-09T16:20:55;19.30;99.90
18240;DHT22;9244;50.828;4.718;2023-10-09T16:23:21;19.00;99.90
18240;DHT22;9244;50.828;4.718;2023-10-09T16:25:48;18.90;99.90
18240;DHT22;9244;50.828;4.718;2023-10-09T16:28:14;18.80;99.90
18240;DHT22;9244;50.828;4.718;2023-10-09T16:30:43;18.70;99.90